createdAt,value
2022-10-23T00:01:59.394Z,14.12
2022-10-23T00:04:26.319Z,14.02
2022-10-23T00:06:53.122Z,13.95
2022-10-23T00:09:21.352Z,13.88
2022-10-23T00:11:50.029Z,13.82
2022-10-23T00:14:18.448Z,13.79
2022-10-23T00:16:48.161Z,13.75
2022-10-23T00:19:17.415Z,13.70
2022-10-23T00:21:44.940Z,13.65
2022-10-23T00:24:12.556Z,13.59
2022-10-23T00:26:40.624Z,13.56
2022-10-23T00:29:08.781Z,13.54
2022-10-23T00:31:36.391Z,13.52
2022-10-23T00:34:06.951Z,13.47
2022-10-23T00:36:33.878Z,13.45
2022-10-23T00:39:00.225Z,13.45
2022-10-23T00:41:28.925Z,13.43
2022-10-23T00:43:57.206Z,13.42
2022-10-23T00:46:25.041Z,13.41
2022-10-23T00:48:52.117Z,13.43
2022-10-23T00:51:18.970Z,13.45
2022-10-23T00:53:52.847Z,13.49
2022-10-23T00:56:25.451Z,13.50
2022-10-23T00:58:52.272Z,13.49
2022-10-23T01:01:19.982Z,13.50
2022-10-23T01:03:47.259Z,13.52
2022-10-23T01:06:31.790Z,13.54
2022-10-23T01:09:12.814Z,13.58
2022-10-23T01:11:48.268Z,13.58
2022-10-23T01:14:27.290Z,13.60
2022-10-23T01:17:06.741Z,13.61
2022-10-23T01:19:55.893Z,13.62
2022-10-23T01:22:32.970Z,13.61
2022-10-23T01:25:03.009Z,13.60
2022-10-23T01:27:42.331Z,13.59
2022-10-23T01:30:10.540Z,13.59
2022-10-23T01:32:55.690Z,13.60
2022-10-23T01:35:24.998Z,13.58
2022-10-23T01:37:53.609Z,13.57
2022-10-23T01:40:24.879Z,13.54
2022-10-23T01:42:54.787Z,13.50
2022-10-23T01:45:26.849Z,13.48
2022-10-23T01:47:54.421Z,13.45
2022-10-23T01:50:22.448Z,13.43
2022-10-23T01:52:48.770Z,13.44
2022-10-23T01:55:15.174Z,13.41
2022-10-23T01:57:41.947Z,13.38
2022-10-23T02:00:10.071Z,13.34
2022-10-23T02:02:37.714Z,13.32
2022-10-23T02:05:10.640Z,13.28
2022-10-23T02:07:37.028Z,13.26
2022-10-23T02:10:04.108Z,13.25
2022-10-23T02:12:49.081Z,13.24
2022-10-23T02:15:15.359Z,13.22
2022-10-23T02:17:57.328Z,13.18
2022-10-23T02:20:36.598Z,13.15
2022-10-23T02:23:08.657Z,13.13
2022-10-23T02:25:39.472Z,13.09
2022-10-23T02:28:09.338Z,13.03
2022-10-23T02:30:37.709Z,12.97
2022-10-23T02:33:05.252Z,12.98
2022-10-23T02:35:31.594Z,12.98
2022-10-23T02:38:00.009Z,12.95
2022-10-23T02:40:30.493Z,12.94
2022-10-23T02:43:00.844Z,12.93
2022-10-23T02:45:35.888Z,12.91
2022-10-23T02:48:08.448Z,12.88
2022-10-23T02:50:43.578Z,12.85
2022-10-23T02:53:45.321Z,12.85
2022-10-23T02:56:21.498Z,12.84
2022-10-23T02:58:54.698Z,12.79
2022-10-23T03:01:23.521Z,12.77
2022-10-23T03:04:00.911Z,12.74
2022-10-23T03:06:27.229Z,12.74
2022-10-23T03:08:53.507Z,12.75
2022-10-23T03:11:19.989Z,12.76
2022-10-23T03:13:46.454Z,12.75
2022-10-23T03:16:12.748Z,12.76
2022-10-23T03:18:39.066Z,12.77
2022-10-23T03:21:05.381Z,12.77
2022-10-23T03:23:31.681Z,12.78
2022-10-23T03:25:57.979Z,12.80
2022-10-23T03:28:24.302Z,12.80
2022-10-23T03:30:50.832Z,12.79
2022-10-23T03:33:17.158Z,12.79
2022-10-23T03:35:43.458Z,12.78
2022-10-23T03:38:09.764Z,12.78
2022-10-23T03:40:36.121Z,12.81
2022-10-23T03:43:02.465Z,12.83
2022-10-23T03:45:28.771Z,12.85
2022-10-23T03:47:55.085Z,12.87
2022-10-23T03:50:21.451Z,12.86
2022-10-23T03:52:47.752Z,12.88
2022-10-23T03:55:14.096Z,12.91
2022-10-23T03:57:40.434Z,12.91
2022-10-23T04:00:07.088Z,12.94
2022-10-23T04:02:33.429Z,12.95
2022-10-23T04:04:59.748Z,12.95
2022-10-23T04:07:26.029Z,12.96
2022-10-23T04:09:52.333Z,12.98
2022-10-23T04:12:18.701Z,12.97
2022-10-23T04:14:45.002Z,12.98
2022-10-23T04:17:11.301Z,12.99
2022-10-23T04:19:37.657Z,13.01
2022-10-23T04:22:03.940Z,13.00
2022-10-23T04:24:30.227Z,12.98
2022-10-23T04:26:56.496Z,12.98
2022-10-23T04:29:24.461Z,12.98
2022-10-23T04:31:51.584Z,12.96
2022-10-23T04:34:18.459Z,12.96
2022-10-23T04:36:44.741Z,12.93
2022-10-23T04:39:11.115Z,12.96
2022-10-23T04:41:38.877Z,12.96
2022-10-23T04:44:05.186Z,12.96
2022-10-23T04:46:31.484Z,12.95
2022-10-23T04:48:57.781Z,12.93
2022-10-23T04:51:24.067Z,12.90
2022-10-23T04:53:50.474Z,12.90
2022-10-23T04:56:16.777Z,12.89
2022-10-23T04:58:43.145Z,12.87
2022-10-23T05:01:12.480Z,12.87
2022-10-23T05:03:38.937Z,12.85
2022-10-23T05:06:05.637Z,12.86
2022-10-23T05:08:32.147Z,12.86
2022-10-23T05:10:58.703Z,12.82
2022-10-23T05:13:25.070Z,12.81
2022-10-23T05:15:51.937Z,12.78
2022-10-23T05:18:21.518Z,12.77
2022-10-23T05:20:50.208Z,12.76
2022-10-23T05:23:18.173Z,12.75
2022-10-23T05:25:44.743Z,12.76
2022-10-23T05:28:11.310Z,12.75
2022-10-23T05:30:38.195Z,12.75
2022-10-23T05:33:04.967Z,12.80
2022-10-23T05:35:31.528Z,12.82
2022-10-23T05:37:59.146Z,12.86
2022-10-23T05:40:25.781Z,12.89
2022-10-23T05:42:52.219Z,12.89
2022-10-23T05:45:18.665Z,12.90
2022-10-23T05:47:45.296Z,12.95
2022-10-23T05:50:12.074Z,12.98
2022-10-23T05:52:38.366Z,13.01
2022-10-23T05:55:04.803Z,13.02
2022-10-23T05:57:34.254Z,13.02
2022-10-23T06:00:00.548Z,13.01
2022-10-23T06:02:27.203Z,13.05
2022-10-23T06:04:53.608Z,13.07
2022-10-23T06:07:23.398Z,13.08
2022-10-23T06:09:50.160Z,13.09
2022-10-23T06:12:16.576Z,13.12
2022-10-23T06:14:42.879Z,13.14
2022-10-23T06:17:09.219Z,13.15
2022-10-23T06:19:35.514Z,13.12
2022-10-23T06:22:02.190Z,13.14
2022-10-23T06:24:28.486Z,13.13
2022-10-23T06:26:54.771Z,13.15
2022-10-23T06:29:21.075Z,13.13
2022-10-23T06:31:47.430Z,13.18
2022-10-23T06:34:13.872Z,13.21
2022-10-23T06:36:40.253Z,13.22
2022-10-23T06:39:06.857Z,13.25
2022-10-23T06:41:33.221Z,13.29
2022-10-23T06:43:59.641Z,13.29
2022-10-23T06:46:32.715Z,13.33
2022-10-23T06:48:59.006Z,13.36
2022-10-23T06:51:29.609Z,13.38
2022-10-23T06:53:56.365Z,13.37
2022-10-23T06:56:22.962Z,13.39
2022-10-23T06:58:49.347Z,13.40
2022-10-23T07:01:16.510Z,13.44
2022-10-23T07:03:43.007Z,13.48
2022-10-23T07:06:10.637Z,13.50
2022-10-23T07:08:37.492Z,13.48
2022-10-23T07:11:08.110Z,13.55
2022-10-23T07:13:37.823Z,13.60
2022-10-23T07:16:11.426Z,13.65
2022-10-23T07:18:37.969Z,13.68
2022-10-23T07:21:04.496Z,13.72
2022-10-23T07:23:30.813Z,13.70
2022-10-23T07:26:02.516Z,13.74
2022-10-23T07:28:28.868Z,13.79
2022-10-23T07:30:58.595Z,13.84
2022-10-23T07:33:25.129Z,13.85
2022-10-23T07:35:51.491Z,13.88
2022-10-23T07:38:17.997Z,13.92
2022-10-23T07:40:44.601Z,13.96
2022-10-23T07:43:10.949Z,14.03
2022-10-23T07:45:37.334Z,14.09
2022-10-23T07:48:03.735Z,14.12
2022-10-23T07:50:30.016Z,14.16
2022-10-23T07:52:58.494Z,14.22
2022-10-23T07:55:24.858Z,14.25
2022-10-23T07:57:51.164Z,14.30
2022-10-23T08:00:17.837Z,14.34
2022-10-23T08:02:44.456Z,14.39
2022-10-23T08:05:11.162Z,14.43
2022-10-23T08:07:45.064Z,14.42
2022-10-23T08:10:11.369Z,14.47
2022-10-23T08:12:37.862Z,14.51
2022-10-23T08:15:04.525Z,14.55
2022-10-23T08:17:30.813Z,14.58
2022-10-23T08:19:57.204Z,14.63
2022-10-23T08:22:23.668Z,14.70
2022-10-23T08:24:49.993Z,14.74
2022-10-23T08:27:16.333Z,14.81
2022-10-23T08:29:42.705Z,14.86
2022-10-23T08:32:09.056Z,14.88
2022-10-23T08:34:37.773Z,14.91
2022-10-23T08:37:04.085Z,14.95
2022-10-23T08:39:30.376Z,14.97
2022-10-23T08:41:56.732Z,14.99
2022-10-23T08:44:26.016Z,15.04
2022-10-23T08:46:59.167Z,15.07
2022-10-23T08:49:28.410Z,15.14
2022-10-23T08:51:56.378Z,15.09
2022-10-23T08:54:36.557Z,15.17
2022-10-23T08:57:14.451Z,15.23
2022-10-23T08:59:46.165Z,15.27
2022-10-23T09:02:26.629Z,15.33
2022-10-23T09:04:54.317Z,15.37
2022-10-23T09:07:36.174Z,15.45
2022-10-23T09:10:14.869Z,15.52
2022-10-23T09:12:41.794Z,15.57
2022-10-23T09:15:23.420Z,15.61
2022-10-23T09:17:55.168Z,15.65
2022-10-23T09:20:21.655Z,15.72
2022-10-23T09:22:49.153Z,15.72
2022-10-23T09:25:26.137Z,15.74
2022-10-23T09:27:56.102Z,15.79
2022-10-23T09:30:29.553Z,15.83
2022-10-23T09:32:55.874Z,15.91
2022-10-23T09:35:23.273Z,15.91
2022-10-23T09:37:53.056Z,15.95
2022-10-23T09:40:19.376Z,16.02
2022-10-23T09:42:53.363Z,16.08
2022-10-23T09:45:24.748Z,16.10
2022-10-23T09:47:51.080Z,16.18
2022-10-23T09:50:20.070Z,16.27
2022-10-23T09:52:51.082Z,16.37
2022-10-23T09:55:23.106Z,16.40
2022-10-23T09:57:49.475Z,16.44
2022-10-23T10:00:23.009Z,16.45
2022-10-23T10:02:58.596Z,16.54
2022-10-23T10:05:32.998Z,16.61
2022-10-23T10:07:59.319Z,16.61
2022-10-23T10:10:28.754Z,16.58
2022-10-23T10:12:59.327Z,16.58
2022-10-23T10:15:30.808Z,16.54
2022-10-23T10:17:57.137Z,16.53
2022-10-23T10:20:41.818Z,16.47
2022-10-23T10:23:23.233Z,16.42
2022-10-23T10:26:08.580Z,16.43
2022-10-23T10:28:37.908Z,16.45
2022-10-23T10:31:24.512Z,16.47
2022-10-23T10:34:02.721Z,16.50
2022-10-23T10:36:28.992Z,16.51
2022-10-23T10:39:00.306Z,16.48
2022-10-23T10:41:41.601Z,16.52
2022-10-23T10:44:16.826Z,16.51
2022-10-23T10:46:55.335Z,16.51
2022-10-23T10:49:38.849Z,16.55
2022-10-23T10:52:11.440Z,16.63
2022-10-23T10:54:37.745Z,16.70
2022-10-23T10:57:09.769Z,16.74
2022-10-23T10:59:42.400Z,16.78
2022-10-23T11:02:11.638Z,16.83
2022-10-23T11:04:44.657Z,16.87
2022-10-23T11:07:15.804Z,16.92
2022-10-23T11:09:43.129Z,16.91
2022-10-23T11:12:16.318Z,16.98
2022-10-23T11:14:42.722Z,17.02
2022-10-23T11:17:13.584Z,17.03
2022-10-23T11:19:45.674Z,17.02
2022-10-23T11:22:19.248Z,17.04
2022-10-23T11:24:58.356Z,16.97
2022-10-23T11:27:34.516Z,16.99
2022-10-23T11:30:10.167Z,16.98
2022-10-23T11:32:36.441Z,17.01
2022-10-23T11:35:21.732Z,17.04
2022-10-23T11:38:14.637Z,17.04
2022-10-23T11:40:45.737Z,16.98
2022-10-23T11:43:12.111Z,17.04
2022-10-23T11:45:40.046Z,17.03
2022-10-23T11:48:23.376Z,17.03
2022-10-23T11:50:51.541Z,17.05
2022-10-23T11:53:23.967Z,17.04
2022-10-23T11:56:09.112Z,17.04
2022-10-23T11:58:55.863Z,17.06
2022-10-23T12:01:41.815Z,17.08
2022-10-23T12:04:13.978Z,17.08
2022-10-23T12:06:41.581Z,17.10
2022-10-23T12:09:21.861Z,17.11
2022-10-23T12:11:49.143Z,17.15
2022-10-23T12:14:35.533Z,17.18
2022-10-23T12:17:01.981Z,17.23
2022-10-23T12:19:29.788Z,17.36
2022-10-23T12:22:01.147Z,17.47
2022-10-23T12:24:39.768Z,17.60
2022-10-23T12:27:29.457Z,17.76
2022-10-23T12:30:14.286Z,17.87
2022-10-23T12:32:54.108Z,17.94
2022-10-23T12:35:20.379Z,18.03
2022-10-23T12:37:51.383Z,18.09
2022-10-23T12:40:17.777Z,18.15
2022-10-23T12:42:52.766Z,18.16
2022-10-23T12:45:22.459Z,18.22
2022-10-23T12:47:49.799Z,18.23
2022-10-23T12:50:21.049Z,18.21
2022-10-23T12:52:50.976Z,18.27
2022-10-23T12:55:17.469Z,18.33
2022-10-23T12:57:44.633Z,18.38
2022-10-23T13:00:15.101Z,18.40
2022-10-23T13:02:41.574Z,18.39
2022-10-23T13:05:09.092Z,18.44
2022-10-23T13:07:42.681Z,18.44
2022-10-23T13:10:13.644Z,18.49
2022-10-23T13:12:40.983Z,18.52
2022-10-23T13:15:07.689Z,18.55
2022-10-23T13:17:34.077Z,18.51
2022-10-23T13:20:10.516Z,18.54
2022-10-23T13:22:37.012Z,18.54
2022-10-23T13:25:04.313Z,18.53
2022-10-23T13:27:30.593Z,18.56
2022-10-23T13:29:56.917Z,18.55
2022-10-23T13:32:24.396Z,18.56
2022-10-23T13:35:03.604Z,18.60
2022-10-23T13:37:36.820Z,18.62
2022-10-23T13:40:09.652Z,18.58
2022-10-23T13:42:36.063Z,18.57
2022-10-23T13:45:02.404Z,18.64
2022-10-23T13:47:28.724Z,18.64
2022-10-23T13:49:55.005Z,18.69
2022-10-23T13:52:23.341Z,18.72
2022-10-23T13:54:49.935Z,18.66
2022-10-23T13:57:16.681Z,18.80
2022-10-23T13:59:43.022Z,18.84
2022-10-23T14:02:19.262Z,18.79
2022-10-23T14:04:47.108Z,18.79
2022-10-23T14:07:13.475Z,18.89
2022-10-23T14:09:39.757Z,18.96
2022-10-23T14:12:06.115Z,18.97
2022-10-23T14:14:32.492Z,19.00
2022-10-23T14:16:58.912Z,18.98
2022-10-23T14:19:25.224Z,19.00
2022-10-23T14:21:51.560Z,19.03
2022-10-23T14:24:17.921Z,19.01
2022-10-23T14:26:44.260Z,19.02
2022-10-23T14:29:17.785Z,19.03
2022-10-23T14:31:47.792Z,19.09
2022-10-23T14:34:14.072Z,19.05
2022-10-23T14:36:49.798Z,19.08
2022-10-23T14:39:17.317Z,19.06
2022-10-23T14:41:43.675Z,19.05
2022-10-23T14:44:10.001Z,19.07
2022-10-23T14:46:38.117Z,19.02
2022-10-23T14:49:04.417Z,19.01
2022-10-23T14:51:30.777Z,19.04
2022-10-23T14:54:01.772Z,19.03
2022-10-23T14:56:32.629Z,19.05
2022-10-23T14:59:02.661Z,19.12
2022-10-23T15:01:32.963Z,19.14
2022-10-23T15:03:59.607Z,19.14
2022-10-23T15:06:25.958Z,19.14
2022-10-23T15:08:54.632Z,19.08
2022-10-23T15:11:21.672Z,19.02
2022-10-23T15:13:47.956Z,18.98
2022-10-23T15:16:14.275Z,18.98
2022-10-23T15:18:40.635Z,18.95
2022-10-23T15:21:07.325Z,18.92
2022-10-23T15:23:37.682Z,18.88
2022-10-23T15:26:05.813Z,18.83
2022-10-23T15:28:32.664Z,18.81
2022-10-23T15:30:59.172Z,18.71
2022-10-23T15:33:26.032Z,18.71
2022-10-23T15:35:52.779Z,18.69
2022-10-23T15:38:19.068Z,18.63
2022-10-23T15:40:45.730Z,18.65
2022-10-23T15:43:13.254Z,18.58
2022-10-23T15:45:39.853Z,18.59
2022-10-23T15:48:06.619Z,18.53
2022-10-23T15:50:33.359Z,18.47
2022-10-23T15:52:59.728Z,18.45
2022-10-23T15:55:26.028Z,18.42
2022-10-23T15:57:52.404Z,18.38
2022-10-23T16:00:20.608Z,18.41
2022-10-23T16:02:47.489Z,18.38
2022-10-23T16:05:14.107Z,18.31
2022-10-23T16:07:40.446Z,18.26
2022-10-23T16:10:06.913Z,18.24
2022-10-23T16:12:33.189Z,18.21
2022-10-23T16:14:59.559Z,18.13
2022-10-23T16:17:25.849Z,18.11
2022-10-23T16:19:52.135Z,18.14
2022-10-23T16:22:18.500Z,18.11
2022-10-23T16:24:44.778Z,18.02
2022-10-23T16:27:11.141Z,18.09
2022-10-23T16:29:37.424Z,18.06
2022-10-23T16:32:03.765Z,18.08
2022-10-23T16:34:30.050Z,18.12
2022-10-23T16:36:56.341Z,18.11
2022-10-23T16:39:22.644Z,18.11
2022-10-23T16:41:48.957Z,18.11
2022-10-23T16:44:15.349Z,18.09
2022-10-23T16:46:41.725Z,18.11
2022-10-23T16:49:08.773Z,18.12
2022-10-23T16:51:35.245Z,18.11
2022-10-23T16:54:01.752Z,18.10
2022-10-23T16:56:28.806Z,18.08
2022-10-23T16:58:55.851Z,18.12
2022-10-23T17:01:24.045Z,18.10
2022-10-23T17:03:51.450Z,18.13
2022-10-23T17:06:19.669Z,18.14
2022-10-23T17:08:46.102Z,18.17
2022-10-23T17:11:23.241Z,18.16
2022-10-23T17:13:58.540Z,18.12
2022-10-23T17:16:27.720Z,18.19
2022-10-23T17:18:54.493Z,18.20
2022-10-23T17:21:21.601Z,18.22
2022-10-23T17:23:48.665Z,18.20
2022-10-23T17:26:16.436Z,18.20
2022-10-23T17:28:43.477Z,18.18
2022-10-23T17:31:17.018Z,18.14
2022-10-23T17:33:44.466Z,18.16
2022-10-23T17:36:11.828Z,18.15
2022-10-23T17:38:39.195Z,18.18
2022-10-23T17:41:06.210Z,18.16
2022-10-23T17:43:33.668Z,18.16
2022-10-23T17:46:00.076Z,18.19
2022-10-23T17:48:26.969Z,18.10
2022-10-23T17:51:05.526Z,18.11
2022-10-23T17:53:32.999Z,18.11
2022-10-23T17:56:01.059Z,18.12
2022-10-23T17:58:27.372Z,18.14
2022-10-23T18:00:53.772Z,18.15
2022-10-23T18:03:20.137Z,18.12
2022-10-23T18:05:46.711Z,18.15
2022-10-23T18:08:13.134Z,18.11
2022-10-23T18:10:39.562Z,18.13
2022-10-23T18:13:05.906Z,18.08
2022-10-23T18:15:35.767Z,18.06
2022-10-23T18:18:09.109Z,18.05
2022-10-23T18:20:40.117Z,18.11
2022-10-23T18:23:07.055Z,18.09
2022-10-23T18:25:34.128Z,18.07
2022-10-23T18:28:02.538Z,18.06
2022-10-23T18:30:29.478Z,18.10
2022-10-23T18:32:58.054Z,18.11
2022-10-23T18:35:24.744Z,18.11
2022-10-23T18:37:51.497Z,18.05
2022-10-23T18:40:18.113Z,18.02
2022-10-23T18:42:44.727Z,18.08
2022-10-23T18:45:12.596Z,18.15
2022-10-23T18:47:39.161Z,18.09
2022-10-23T18:50:05.648Z,18.14
2022-10-23T18:52:31.953Z,18.14
2022-10-23T18:54:58.248Z,18.18
2022-10-23T18:57:24.822Z,18.18
2022-10-23T18:59:51.233Z,18.24
2022-10-23T19:02:18.348Z,18.22
2022-10-23T19:04:44.776Z,18.27
2022-10-23T19:07:11.079Z,18.25
2022-10-23T19:09:37.477Z,18.28
2022-10-23T19:12:05.770Z,18.31
2022-10-23T19:14:32.136Z,18.35
2022-10-23T19:17:02.766Z,18.33
2022-10-23T19:19:31.927Z,18.31
2022-10-23T19:21:58.659Z,18.30
2022-10-23T19:24:29.421Z,18.38
2022-10-23T19:26:56.739Z,18.39
2022-10-23T19:29:26.331Z,18.41
2022-10-23T19:31:53.005Z,18.38
2022-10-23T19:34:20.551Z,18.40
2022-10-23T19:36:47.481Z,18.44
2022-10-23T19:39:14.152Z,18.46
2022-10-23T19:41:40.883Z,18.43
2022-10-23T19:44:07.194Z,18.45
2022-10-23T19:46:36.881Z,18.40
2022-10-23T19:49:04.444Z,18.38
2022-10-23T19:51:30.997Z,18.40
2022-10-23T19:53:58.026Z,18.44
2022-10-23T19:56:24.358Z,18.42
2022-10-23T19:58:51.062Z,18.40
2022-10-23T20:01:18.998Z,18.35
2022-10-23T20:03:48.621Z,18.21
2022-10-23T20:06:21.742Z,18.06
2022-10-23T20:08:49.897Z,18.08
2022-10-23T20:11:20.536Z,18.04
2022-10-23T20:13:48.647Z,17.94
2022-10-23T20:16:22.151Z,17.92
2022-10-23T20:18:48.909Z,17.94
2022-10-23T20:21:15.551Z,17.88
2022-10-23T20:23:45.284Z,17.83
2022-10-23T20:26:13.568Z,17.78
2022-10-23T20:28:39.896Z,17.79
2022-10-23T20:31:08.386Z,17.75
2022-10-23T20:33:39.030Z,17.68
2022-10-23T20:36:07.211Z,17.64
2022-10-23T20:38:34.250Z,17.62
2022-10-23T20:41:05.594Z,17.45
2022-10-23T20:43:33.635Z,17.57
2022-10-23T20:46:04.792Z,17.62
2022-10-23T20:48:35.189Z,17.63
2022-10-23T20:51:02.441Z,17.60
2022-10-23T20:53:29.162Z,17.60
2022-10-23T20:55:55.477Z,17.63
2022-10-23T20:58:21.823Z,17.61
2022-10-23T21:00:48.141Z,17.58
2022-10-23T21:03:14.538Z,17.61
2022-10-23T21:05:40.844Z,17.58
2022-10-23T21:08:08.113Z,17.58
2022-10-23T21:10:34.534Z,17.58
2022-10-23T21:13:02.386Z,17.56
2022-10-23T21:15:28.665Z,17.55
2022-10-23T21:17:56.857Z,17.52
2022-10-23T21:20:25.591Z,17.49
2022-10-23T21:22:54.128Z,17.54
2022-10-23T21:25:21.595Z,17.53
2022-10-23T21:27:48.009Z,17.50
2022-10-23T21:30:14.557Z,17.45
2022-10-23T21:32:40.951Z,17.40
2022-10-23T21:35:07.684Z,17.35
2022-10-23T21:37:34.007Z,17.36
2022-10-23T21:40:00.353Z,17.36
2022-10-23T21:42:27.165Z,17.35
2022-10-23T21:44:53.886Z,17.32
2022-10-23T21:47:20.178Z,17.25
2022-10-23T21:49:46.549Z,17.26
2022-10-23T21:52:15.023Z,17.22
2022-10-23T21:54:43.899Z,17.24
2022-10-23T21:57:14.604Z,17.28
2022-10-23T21:59:40.912Z,17.26
2022-10-23T22:02:07.303Z,17.28
2022-10-23T22:04:33.912Z,17.27
2022-10-23T22:07:00.215Z,17.36
2022-10-23T22:09:26.567Z,17.40
2022-10-23T22:11:53.273Z,17.33
2022-10-23T22:14:20.210Z,17.39
2022-10-23T22:16:47.217Z,17.40
2022-10-23T22:19:16.466Z,17.33
2022-10-23T22:21:43.045Z,17.32
2022-10-23T22:24:09.702Z,17.33
2022-10-23T22:26:37.610Z,17.32
2022-10-23T22:29:08.085Z,17.30
2022-10-23T22:31:35.021Z,17.34
2022-10-23T22:34:13.094Z,17.31
2022-10-23T22:36:48.606Z,17.36
2022-10-23T22:39:15.018Z,17.32
2022-10-23T22:41:43.170Z,17.31
2022-10-23T22:44:11.080Z,17.36
2022-10-23T22:46:39.522Z,17.42
2022-10-23T22:51:38.582Z,17.45
2022-10-23T22:54:05.072Z,17.47
2022-10-23T22:56:31.391Z,17.45
2022-10-23T22:58:58.028Z,17.54
2022-10-23T23:01:26.191Z,17.52
2022-10-23T23:03:52.655Z,17.50
2022-10-23T23:06:19.546Z,17.43
2022-10-23T23:08:46.582Z,17.39
2022-10-23T23:11:14.708Z,17.39
2022-10-23T23:13:42.506Z,17.33
2022-10-23T23:16:16.648Z,17.29
2022-10-23T23:18:43.000Z,17.28
2022-10-23T23:21:09.466Z,17.21
2022-10-23T23:23:36.649Z,17.29
2022-10-23T23:26:05.504Z,17.25
2022-10-23T23:28:32.382Z,17.28
2022-10-23T23:31:03.204Z,17.25
2022-10-23T23:33:30.702Z,17.19
2022-10-23T23:35:58.699Z,17.15
2022-10-23T23:38:26.293Z,17.24
2022-10-23T23:40:54.183Z,17.21
2022-10-23T23:43:20.941Z,17.20
2022-10-23T23:45:48.358Z,17.29
2022-10-23T23:48:17.097Z,17.29
2022-10-23T23:50:44.292Z,17.34
2022-10-23T23:53:11.650Z,17.29
2022-10-23T23:55:39.300Z,17.33
2022-10-23T23:58:06.223Z,17.35
